Aliso Viejo, California
Current Conditions -  °F | °C
As of 11:53 AM on Sunday 25 Jan 2015 (Local Time) from KSNA Reporting Station
Clear Clear  
Wind Chill: 82°   Ceiling: Unl
Heat Index: 82°   Visibility: 10mi
Dew Point: 33°   Wind: 6mph
Humidity: 17%   Direction: 190°S
Pressure: 29.99"   Gusts: NA
Location:  33.57°N, 117.72°W
Report Text: KSNA 251953Z 19005KT 10SM CLR 28/01 A2999 RMK AO2 SLP154 T02780006 $
Loading
Personal Weather Stations






























Interactive Weather Map New forecast layout! Learn more

10-Day Weather Forecast

Advertisements
Track Severe Weather on mobile